createdAt,value
2023-04-09T00:01:02.117Z,100695.09
2023-04-09T00:02:04.455Z,100691.63
2023-04-09T00:03:06.953Z,100692.84
2023-04-09T00:04:09.492Z,100692.84
2023-04-09T00:05:11.985Z,100697.35
2023-04-09T00:06:15.737Z,100700.14
2023-04-09T00:07:19.158Z,100700.14
2023-04-09T00:08:22.431Z,100702.86
2023-04-09T00:09:24.885Z,100696.86
2023-04-09T00:10:27.453Z,100696.86
2023-04-09T00:11:31.002Z,100696.00
2023-04-09T00:12:33.944Z,100699.73
2023-04-09T00:13:39.652Z,100699.06
2023-04-09T00:14:40.646Z,100693.98
2023-04-09T00:15:42.942Z,100699.46
2023-04-09T00:16:46.009Z,100695.88
2023-04-09T00:17:48.792Z,100697.79
2023-04-09T00:18:51.292Z,100696.12
2023-04-09T00:19:53.887Z,100703.16
2023-04-09T00:20:56.844Z,100689.88
2023-04-09T00:21:59.256Z,100696.30
2023-04-09T00:23:02.238Z,100691.05
2023-04-09T00:24:06.075Z,100686.60
2023-04-09T00:25:09.319Z,100692.78
2023-04-09T00:26:12.707Z,100693.98
2023-04-09T00:27:15.418Z,100699.50
2023-04-09T00:28:17.817Z,100699.38
2023-04-09T00:29:20.150Z,100695.91
2023-04-09T00:30:22.659Z,100695.05
2023-04-09T00:31:26.996Z,100691.53
2023-04-09T00:32:29.614Z,100690.61
2023-04-09T00:33:31.920Z,100690.61
2023-04-09T00:34:34.350Z,100688.02
2023-04-09T00:35:36.746Z,100691.53
2023-04-09T00:36:39.199Z,100692.52
2023-04-09T00:37:41.974Z,100689.15
2023-04-09T00:38:44.285Z,100691.86
2023-04-09T00:39:46.470Z,100694.45
2023-04-09T00:40:49.919Z,100696.31
2023-04-09T00:42:00.081Z,100692.84
2023-04-09T00:43:03.185Z,100694.63
2023-04-09T00:44:07.490Z,100687.66
2023-04-09T00:45:10.117Z,100690.07
2023-04-09T00:46:13.154Z,100687.53
2023-04-09T00:47:15.640Z,100692.84
2023-04-09T00:48:18.211Z,100687.66
2023-04-09T00:49:21.345Z,100684.07
2023-04-09T00:50:24.282Z,100689.38
2023-04-09T00:51:26.782Z,100689.44
2023-04-09T00:52:29.213Z,100692.96
2023-04-09T00:53:31.514Z,100693.71
2023-04-09T00:54:33.935Z,100685.63
2023-04-09T00:55:38.578Z,100692.67
2023-04-09T00:56:42.084Z,100693.71
2023-04-09T00:57:44.441Z,100699.77
2023-04-09T00:58:46.835Z,100691.11
2023-04-09T00:59:49.039Z,100691.11
2023-04-09T01:00:51.415Z,100688.52
2023-04-09T01:01:53.955Z,100682.55
2023-04-09T01:02:59.061Z,100684.45
2023-04-09T01:04:03.299Z,100685.33
2023-04-09T01:11:53.459Z,100695.31
2023-04-09T01:17:07.356Z,100698.77
2023-04-09T01:18:41.091Z,100694.24
2023-04-09T01:19:50.511Z,100698.45
2023-04-09T01:20:59.403Z,100692.11
2023-04-09T01:22:04.408Z,100696.61
2023-04-09T01:23:18.939Z,100701.75
2023-04-09T01:24:37.204Z,100696.44
2023-04-09T01:25:58.539Z,100694.77
2023-04-09T01:27:05.587Z,100694.77
2023-04-09T01:28:19.511Z,100691.84
2023-04-09T01:29:25.333Z,100693.84
2023-04-09T01:30:28.822Z,100696.34
2023-04-09T01:32:44.203Z,100691.50
2023-04-09T01:33:47.299Z,100687.84
2023-04-09T01:34:51.754Z,100693.95
2023-04-09T01:35:56.637Z,100695.80
2023-04-09T01:37:02.272Z,100694.19
2023-04-09T01:38:05.719Z,100701.23
2023-04-09T01:39:08.658Z,100700.56
2023-04-09T01:40:12.092Z,100697.09
2023-04-09T01:41:18.410Z,100702.35
2023-04-09T01:42:21.536Z,100699.70
2023-04-09T01:43:26.442Z,100694.45
2023-04-09T01:44:29.755Z,100705.88
2023-04-09T01:45:33.491Z,100700.30
2023-04-09T01:46:38.542Z,100699.55
2023-04-09T01:47:41.487Z,100706.53
2023-04-09T01:48:44.280Z,100707.40
2023-04-09T01:49:46.929Z,100711.29
2023-04-09T01:50:50.751Z,100713.94
2023-04-09T01:51:54.234Z,100710.48
2023-04-09T01:52:57.381Z,100717.73
2023-04-09T01:54:00.365Z,100713.36
2023-04-09T01:55:03.042Z,100713.50
2023-04-09T01:56:07.247Z,100714.42
2023-04-09T01:57:09.832Z,100718.11
2023-04-09T01:58:12.186Z,100715.39
2023-04-09T01:59:14.942Z,100709.33
2023-04-09T02:00:18.312Z,100720.70
2023-04-09T02:02:36.445Z,100710.59
2023-04-09T02:05:06.561Z,100708.41
2023-04-09T02:06:25.333Z,100710.48
2023-04-09T02:08:45.594Z,100716.03
2023-04-09T02:09:48.843Z,100711.75
2023-04-09T02:10:55.416Z,100718.73
2023-04-09T02:12:00.545Z,100717.67
2023-04-09T02:13:04.982Z,100715.97
2023-04-09T02:14:09.407Z,100712.56
2023-04-09T02:15:13.186Z,100719.55
2023-04-09T02:16:17.146Z,100724.84
2023-04-09T02:17:19.941Z,100715.89
2023-04-09T02:18:29.765Z,100717.76
2023-04-09T02:19:43.930Z,100708.98
2023-04-09T02:20:46.430Z,100719.70
2023-04-09T02:21:48.744Z,100717.86
2023-04-09T02:22:51.094Z,100721.53
2023-04-09T02:23:53.706Z,100719.86
2023-04-09T02:24:56.811Z,100724.34
2023-04-09T02:25:59.268Z,100721.74
2023-04-09T02:27:02.418Z,100722.56
2023-04-09T02:28:05.015Z,100727.81
2023-04-09T02:29:07.336Z,100723.38
2023-04-09T02:30:11.869Z,100726.13
2023-04-09T02:31:14.383Z,100724.39
2023-04-09T02:32:16.747Z,100725.45
2023-04-09T02:33:19.276Z,100723.81
2023-04-09T02:34:22.006Z,100718.47
2023-04-09T02:35:24.460Z,100723.77
2023-04-09T02:36:26.961Z,100725.66
2023-04-09T02:37:29.311Z,100720.45
2023-04-09T02:38:32.016Z,100724.02
2023-04-09T02:39:34.206Z,100722.32
2023-04-09T02:40:37.223Z,100725.02
2023-04-09T02:41:39.767Z,100723.34
2023-04-09T02:42:42.572Z,100722.32
2023-04-09T02:43:44.814Z,100724.25
2023-04-09T02:44:47.134Z,100717.22
2023-04-09T02:45:50.034Z,100716.41
2023-04-09T02:46:52.365Z,100718.29
2023-04-09T02:47:55.114Z,100719.16
2023-04-09T02:48:57.434Z,100718.34
2023-04-09T02:49:59.761Z,100718.34
2023-04-09T02:51:06.997Z,100713.86
2023-04-09T02:52:10.072Z,100712.26
2023-04-09T02:53:12.980Z,100715.83
2023-04-09T02:54:15.323Z,100719.25
2023-04-09T02:55:18.791Z,100715.83
2023-04-09T02:56:22.983Z,100718.63
2023-04-09T02:57:25.381Z,100714.29
2023-04-09T02:58:27.691Z,100720.60
2023-04-09T02:59:30.008Z,100719.81
2023-04-09T03:00:32.456Z,100720.68
2023-04-09T03:01:35.575Z,100713.47
2023-04-09T03:02:38.267Z,100717.95
2023-04-09T03:03:40.924Z,100718.18
2023-04-09T03:04:43.440Z,100718.27
2023-04-09T03:05:45.771Z,100720.01
2023-04-09T03:06:48.239Z,100716.45
2023-04-09T03:07:51.289Z,100719.91
2023-04-09T03:08:53.881Z,100712.98
2023-04-09T03:09:57.224Z,100716.49
2023-04-09T03:11:01.213Z,100721.89
2023-04-09T03:12:03.684Z,100716.77
2023-04-09T03:13:05.998Z,100719.41
2023-04-09T03:14:08.200Z,100716.64
2023-04-09T03:15:11.192Z,100725.63
2023-04-09T03:16:13.847Z,100713.36
2023-04-09T03:17:16.342Z,100723.19
2023-04-09T03:18:19.308Z,100724.05
2023-04-09T03:19:21.838Z,100720.44
2023-04-09T03:20:24.348Z,100720.48
2023-04-09T03:21:26.642Z,100717.02
2023-04-09T03:22:28.924Z,100724.09
2023-04-09T03:23:32.092Z,100721.45
2023-04-09T03:24:34.452Z,100724.92
2023-04-09T03:25:38.553Z,100714.42
2023-04-09T03:26:42.918Z,100715.29
2023-04-09T03:27:47.155Z,100713.46
2023-04-09T03:28:51.221Z,100721.45
2023-04-09T03:29:56.743Z,100725.11
2023-04-09T03:31:00.341Z,100726.92
2023-04-09T03:32:02.978Z,100724.31
2023-04-09T03:33:05.352Z,100719.16
2023-04-09T03:34:10.680Z,100724.41
2023-04-09T03:35:13.065Z,100731.48
2023-04-09T03:36:15.976Z,100723.45
2023-04-09T03:37:20.035Z,100715.60
2023-04-09T03:38:22.384Z,100725.37
2023-04-09T03:39:25.455Z,100731.58
2023-04-09T03:40:27.722Z,100727.88
2023-04-09T03:41:30.082Z,100726.28
2023-04-09T03:42:34.398Z,100723.55
2023-04-09T03:43:37.826Z,100725.33
2023-04-09T03:44:40.613Z,100720.90
2023-04-09T03:45:47.587Z,100726.33
2023-04-09T03:46:54.815Z,100727.16
2023-04-09T03:47:58.015Z,100725.42
2023-04-09T03:49:01.169Z,100727.83
2023-04-09T03:50:06.234Z,100724.37
2023-04-09T03:51:14.823Z,100727.83
2023-04-09T03:52:19.699Z,100721.81
2023-04-09T03:53:23.874Z,100726.97
2023-04-09T03:54:31.707Z,100724.14
2023-04-09T03:55:34.756Z,100727.70
2023-04-09T03:56:38.788Z,100729.44
2023-04-09T03:57:42.933Z,100724.09
2023-04-09T03:58:47.561Z,100739.94
2023-04-09T03:59:50.019Z,100731.99
2023-04-09T04:00:54.471Z,100732.05
2023-04-09T04:01:58.675Z,100728.48
2023-04-09T04:03:01.989Z,100725.97
2023-04-09T04:04:09.414Z,100740.85
2023-04-09T04:05:24.135Z,100740.80
2023-04-09T04:06:26.871Z,100737.24
2023-04-09T04:07:32.234Z,100736.38
2023-04-09T04:08:36.561Z,100731.95
2023-04-09T04:09:38.880Z,100738.11
2023-04-09T04:10:43.216Z,100735.41
2023-04-09T04:11:46.291Z,100736.31
2023-04-09T04:12:49.064Z,100732.53
2023-04-09T04:13:53.293Z,100736.22
2023-04-09T04:14:55.616Z,100735.22
2023-04-09T04:16:08.380Z,100739.56
2023-04-09T04:17:11.166Z,100740.33
2023-04-09T04:18:13.888Z,100743.84
2023-04-09T04:19:18.073Z,100746.45
2023-04-09T04:20:22.369Z,100737.69
2023-04-09T04:21:32.620Z,100741.20
2023-04-09T04:22:36.833Z,100740.28
2023-04-09T04:23:40.505Z,100744.66
2023-04-09T04:24:44.658Z,100742.61
2023-04-09T04:25:47.406Z,100741.74
2023-04-09T04:26:51.728Z,100749.64
2023-04-09T04:27:55.322Z,100749.55
2023-04-09T04:28:59.443Z,100745.88
2023-04-09T04:30:20.777Z,100747.62
2023-04-09T04:31:36.861Z,100754.47
2023-04-09T04:32:39.417Z,100748.16
2023-04-09T04:33:43.636Z,100744.48
2023-04-09T04:34:51.165Z,100747.82
2023-04-09T04:37:17.582Z,100744.48
2023-04-09T04:38:20.268Z,100745.94
2023-04-09T04:39:22.519Z,100753.64
2023-04-09T04:40:27.239Z,100747.33
2023-04-09T04:41:31.551Z,100749.88
2023-04-09T04:42:41.711Z,100746.21
2023-04-09T04:43:46.595Z,100751.41
2023-04-09T04:44:50.809Z,100750.44
2023-04-09T04:46:07.784Z,100754.69
2023-04-09T04:47:10.110Z,100754.64
2023-04-09T04:48:12.446Z,100764.27
2023-04-09T04:49:15.409Z,100755.30
2023-04-09T04:50:20.166Z,100753.51
2023-04-09T04:51:31.004Z,100752.59
2023-04-09T04:52:36.107Z,100755.05
2023-04-09T04:53:38.532Z,100756.73
2023-04-09T04:54:43.818Z,100767.28
2023-04-09T04:55:47.765Z,100761.93
2023-04-09T04:56:52.699Z,100763.66
2023-04-09T04:57:56.931Z,100763.61
2023-04-09T04:59:01.541Z,100759.12
2023-04-09T05:00:06.840Z,100767.91
2023-04-09T05:01:09.264Z,100758.11
2023-04-09T05:02:11.720Z,100760.77
2023-04-09T05:03:28.488Z,100765.97
2023-04-09T05:05:45.186Z,100766.14
2023-04-09T05:06:48.104Z,100764.17
2023-04-09T05:07:53.236Z,100766.67
2023-04-09T05:08:56.521Z,100763.91
2023-04-09T05:10:00.003Z,100770.95
2023-04-09T05:11:04.301Z,100767.34
2023-04-09T05:12:08.560Z,100770.80
2023-04-09T05:13:10.776Z,100769.88
2023-04-09T05:14:13.096Z,100776.00
2023-04-09T05:15:15.389Z,100775.89
2023-04-09T05:16:19.220Z,100775.89
2023-04-09T05:17:23.556Z,100774.05
2023-04-09T05:18:25.995Z,100773.19
2023-04-09T05:19:28.429Z,100776.70
2023-04-09T05:20:33.942Z,100771.29
2023-04-09T05:21:38.515Z,100771.15
2023-04-09T05:22:40.845Z,100776.45
2023-04-09T05:23:43.176Z,100772.87
2023-04-09T05:24:45.493Z,100773.69
2023-04-09T05:25:49.062Z,100770.00
2023-04-09T05:26:53.318Z,100773.58
2023-04-09T05:27:56.245Z,100771.73
2023-04-09T05:28:59.362Z,100780.51
2023-04-09T05:30:02.933Z,100776.98
2023-04-09T05:31:05.341Z,100775.15
2023-04-09T05:32:09.401Z,100776.79
2023-04-09T05:33:13.156Z,100781.18
2023-04-09T05:34:15.543Z,100782.97
2023-04-09T05:35:20.132Z,100781.12
2023-04-09T05:36:23.564Z,100775.76
2023-04-09T05:37:27.463Z,100780.03
2023-04-09T05:38:30.830Z,100779.98
2023-04-09T05:39:34.115Z,100782.43
2023-04-09T05:40:36.715Z,100772.67
2023-04-09T05:41:40.094Z,100769.96
2023-04-09T05:42:59.566Z,100772.62
2023-04-09T05:44:06.660Z,100779.48
2023-04-09T05:45:10.389Z,100783.01
2023-04-09T05:46:15.716Z,100781.97
2023-04-09T05:48:28.671Z,100780.32
2023-04-09T05:50:53.297Z,100774.89
2023-04-09T05:51:44.275Z,100779.86
2023-04-09T05:52:47.169Z,100781.45
2023-04-09T05:53:51.273Z,100779.40
2023-04-09T05:54:53.842Z,100780.20
2023-04-09T05:55:58.048Z,100781.82
2023-04-09T05:57:02.571Z,100783.55
2023-04-09T05:58:06.511Z,100775.38
2023-04-09T05:59:08.909Z,100774.33
2023-04-09T06:00:12.419Z,100779.52
2023-04-09T06:02:30.134Z,100781.42
2023-04-09T06:03:32.727Z,100777.39
2023-04-09T06:04:35.120Z,100786.11
2023-04-09T06:05:37.364Z,100786.73
2023-04-09T06:06:40.438Z,100782.13
2023-04-09T06:07:42.882Z,100783.73
2023-04-09T06:08:45.637Z,100787.20
2023-04-09T06:09:47.883Z,100785.23
2023-04-09T06:10:50.460Z,100787.73
2023-04-09T06:11:53.524Z,100784.95
2023-04-09T06:12:56.548Z,100786.55
2023-04-09T06:13:59.438Z,100792.67
2023-04-09T06:15:02.391Z,100790.81
2023-04-09T06:16:06.408Z,100792.39
2023-04-09T06:17:08.829Z,100785.15
2023-04-09T06:18:11.320Z,100796.47
2023-04-09T06:19:16.024Z,100792.78
2023-04-09T06:20:19.115Z,100801.44
2023-04-09T06:21:22.301Z,100796.85
2023-04-09T06:22:24.619Z,100797.59
2023-04-09T06:23:27.279Z,100801.02
2023-04-09T06:24:31.090Z,100795.57
2023-04-09T06:25:34.038Z,100798.91
2023-04-09T06:26:36.399Z,100793.45
2023-04-09T06:27:38.733Z,100794.09
2023-04-09T06:28:41.102Z,100795.69
2023-04-09T06:29:43.413Z,100797.42
2023-04-09T06:30:45.986Z,100793.63
2023-04-09T06:31:50.042Z,100789.00
2023-04-09T06:32:54.805Z,100794.20
2023-04-09T06:33:56.945Z,100790.47
2023-04-09T06:34:59.350Z,100797.39
2023-04-09T06:36:01.634Z,100794.66
2023-04-09T06:37:03.880Z,100791.83
2023-04-09T06:38:06.602Z,100794.36
2023-04-09T06:40:18.176Z,100792.75
2023-04-09T06:41:25.737Z,100789.80
2023-04-09T06:42:28.149Z,100798.41
2023-04-09T06:43:35.206Z,100794.69
2023-04-09T06:44:37.560Z,100800.73
2023-04-09T06:45:41.166Z,100802.27
2023-04-09T06:46:43.933Z,100788.77
2023-04-09T06:47:46.318Z,100791.23
2023-04-09T06:48:49.302Z,100797.14
2023-04-09T06:49:51.563Z,100800.44
2023-04-09T06:50:54.425Z,100796.69
2023-04-09T06:51:58.298Z,100800.95
2023-04-09T06:53:02.430Z,100797.10
2023-04-09T06:54:04.807Z,100802.22
2023-04-09T06:55:07.917Z,100795.81
2023-04-09T06:56:11.008Z,100797.36
2023-04-09T06:57:13.205Z,100801.76
2023-04-09T06:58:15.326Z,100793.63
2023-04-09T06:59:18.150Z,100801.55
2023-04-09T07:00:20.677Z,100789.01
2023-04-09T07:01:23.486Z,100791.60
2023-04-09T07:02:26.139Z,100800.39
2023-04-09T07:03:29.479Z,100788.69
2023-04-09T07:04:31.981Z,100793.01
2023-04-09T07:05:35.567Z,100796.54
2023-04-09T07:06:38.591Z,100794.59
2023-04-09T07:07:41.069Z,100798.98
2023-04-09T07:08:43.464Z,100795.31
2023-04-09T07:09:45.803Z,100798.70
2023-04-09T07:10:48.658Z,100795.92
2023-04-09T07:11:50.986Z,100794.12
2023-04-09T07:12:53.861Z,100796.71
2023-04-09T07:13:56.741Z,100796.56
2023-04-09T07:16:13.690Z,100798.38
2023-04-09T07:17:16.114Z,100799.80
2023-04-09T07:18:18.353Z,100798.68
2023-04-09T07:19:20.596Z,100796.80
2023-04-09T07:20:22.974Z,100801.98
2023-04-09T07:21:25.332Z,100797.52
2023-04-09T07:22:28.663Z,100800.03
2023-04-09T07:23:35.363Z,100801.69
2023-04-09T07:24:37.616Z,100799.17
2023-04-09T07:25:40.751Z,100806.31
2023-04-09T07:26:44.209Z,100808.91
2023-04-09T07:27:46.591Z,100804.44
2023-04-09T07:28:49.002Z,100800.83
2023-04-09T07:31:01.795Z,100798.16
2023-04-09T07:32:04.335Z,100808.27
2023-04-09T07:33:06.432Z,100804.40
2023-04-09T07:34:08.717Z,100798.87
2023-04-09T07:36:21.034Z,100799.80
2023-04-09T07:37:24.002Z,100798.38
2023-04-09T07:38:29.230Z,100805.29
2023-04-09T07:39:32.220Z,100794.45
2023-04-09T07:40:34.993Z,100805.84
2023-04-09T07:41:37.391Z,100799.48
2023-04-09T07:42:39.720Z,100798.43
2023-04-09T07:43:42.477Z,100797.33
2023-04-09T07:44:44.673Z,100795.38
2023-04-09T07:45:49.771Z,100796.08
2023-04-09T07:46:52.203Z,100794.86
2023-04-09T07:47:54.639Z,100797.30
2023-04-09T07:48:56.949Z,100795.41
2023-04-09T07:49:59.939Z,100789.98
2023-04-09T07:51:02.328Z,100784.56
2023-04-09T07:52:05.696Z,100786.19
2023-04-09T07:53:08.249Z,100786.10
2023-04-09T07:54:10.548Z,100781.62
2023-04-09T07:55:12.819Z,100787.75
2023-04-09T07:56:15.373Z,100791.20
2023-04-09T07:57:17.697Z,100792.06
2023-04-09T07:58:20.047Z,100793.71
2023-04-09T07:59:22.368Z,100783.73
2023-04-09T08:00:24.982Z,100780.86
2023-04-09T08:01:28.666Z,100785.27
2023-04-09T08:02:31.954Z,100788.55
2023-04-09T08:03:35.340Z,100787.45
2023-04-09T08:04:38.198Z,100785.52
2023-04-09T08:05:40.713Z,100782.69
2023-04-09T08:06:43.116Z,100781.66
2023-04-09T08:07:45.438Z,100783.38
2023-04-09T08:08:47.794Z,100791.31
2023-04-09T08:09:50.555Z,100784.95
2023-04-09T08:10:53.234Z,100790.21
2023-04-09T08:11:55.545Z,100790.13
2023-04-09T08:14:06.081Z,100790.95
2023-04-09T08:15:09.374Z,100788.81
2023-04-09T08:16:12.552Z,100787.70
2023-04-09T08:17:15.342Z,100786.67
2023-04-09T08:18:17.594Z,100780.26
2023-04-09T08:19:19.821Z,100782.77
2023-04-09T08:20:22.313Z,100788.73
2023-04-09T08:22:32.985Z,100777.18
2023-04-09T08:23:35.256Z,100786.49
2023-04-09T08:24:37.455Z,100777.44
2023-04-09T08:25:39.690Z,100783.56
2023-04-09T08:26:42.331Z,100777.18
2023-04-09T08:27:45.720Z,100775.20
2023-04-09T08:28:47.837Z,100778.61
2023-04-09T08:29:50.116Z,100778.44
2023-04-09T08:30:52.459Z,100778.36
2023-04-09T08:31:54.740Z,100780.08
2023-04-09T08:34:05.828Z,100777.55
2023-04-09T08:35:08.888Z,100774.56
2023-04-09T08:36:11.867Z,100782.30
2023-04-09T08:37:14.257Z,100770.55
2023-04-09T08:38:16.441Z,100780.13
2023-04-09T08:39:18.636Z,100780.73
2023-04-09T08:40:21.554Z,100782.25
2023-04-09T08:41:26.419Z,100778.45
2023-04-09T08:42:31.225Z,100783.80
2023-04-09T08:43:56.482Z,100783.80
2023-04-09T08:44:40.330Z,100775.69
2023-04-09T08:45:42.702Z,100781.90
2023-04-09T08:46:45.732Z,100777.50
2023-04-09T08:47:51.026Z,100782.94
2023-04-09T08:48:53.971Z,100781.22
2023-04-09T08:49:56.771Z,100779.48
2023-04-09T08:50:59.252Z,100773.27
2023-04-09T08:52:01.554Z,100776.72
2023-04-09T08:53:07.115Z,100777.50
2023-04-09T08:54:09.573Z,100777.32
2023-04-09T08:55:12.477Z,100766.53
2023-04-09T08:56:15.551Z,100773.61
2023-04-09T08:57:17.906Z,100771.80
2023-04-09T08:58:21.314Z,100778.96
2023-04-09T08:59:24.213Z,100774.47
2023-04-09T09:00:27.248Z,100773.61
2023-04-09T09:01:31.622Z,100775.51
2023-04-09T09:02:34.401Z,100769.30
2023-04-09T09:03:41.303Z,100766.70
2023-04-09T09:04:48.935Z,100775.69
2023-04-09T09:05:52.331Z,100771.20
2023-04-09T09:06:56.578Z,100770.33
2023-04-09T09:08:02.174Z,100773.88
2023-04-09T09:09:15.133Z,100770.33
2023-04-09T09:10:18.152Z,100775.51
2023-04-09T09:11:27.287Z,100775.42
2023-04-09T09:12:38.892Z,100775.42
2023-04-09T09:13:41.178Z,100781.55
2023-04-09T09:14:44.033Z,100767.09
2023-04-09T09:15:46.347Z,100769.68
2023-04-09T09:18:07.702Z,100775.92
2023-04-09T09:20:22.789Z,100772.11
2023-04-09T09:21:25.234Z,100778.91
2023-04-09T09:22:27.845Z,100776.96
2023-04-09T09:23:36.296Z,100770.48
2023-04-09T09:24:53.048Z,100765.03
2023-04-09T09:25:55.619Z,100773.84
2023-04-09T09:26:58.073Z,100777.11
2023-04-09T09:28:08.606Z,100776.03
2023-04-09T09:29:10.926Z,100766.00
2023-04-09T09:30:23.076Z,100773.77
2023-04-09T09:31:27.018Z,100769.95
2023-04-09T09:32:29.957Z,100766.87
2023-04-09T09:33:33.720Z,100768.41
2023-04-09T09:34:36.746Z,100768.16
2023-04-09T09:35:50.611Z,100766.80
2023-04-09T09:36:53.851Z,100764.80
2023-04-09T09:38:03.796Z,100768.03
2023-04-09T09:39:06.428Z,100756.94
2023-04-09T09:40:10.695Z,100759.43
2023-04-09T09:41:17.638Z,100767.05
2023-04-09T09:42:20.072Z,100757.87
2023-04-09T09:43:22.448Z,100756.72
2023-04-09T09:44:32.297Z,100758.25
2023-04-09T09:45:37.212Z,100753.53
2023-04-09T09:46:41.616Z,100761.28
2023-04-09T09:47:45.263Z,100756.69
2023-04-09T09:48:47.749Z,100752.00
2023-04-09T09:49:51.472Z,100759.72
2023-04-09T09:50:54.149Z,100760.58
2023-04-09T09:52:00.305Z,100751.38
2023-04-09T09:53:05.091Z,100754.73
2023-04-09T09:54:08.041Z,100754.41
2023-04-09T09:56:23.282Z,100753.82
2023-04-09T09:57:28.862Z,100746.45
2023-04-09T09:58:43.426Z,100753.55
2023-04-09T09:59:49.784Z,100745.50
2023-04-09T10:00:53.321Z,100756.99
2023-04-09T10:02:02.834Z,100742.63
2023-04-09T10:03:18.059Z,100751.43
2023-04-09T10:04:22.891Z,100752.20
2023-04-09T10:05:26.409Z,100745.87
2023-04-09T10:06:29.629Z,100759.09
2023-04-09T10:07:32.402Z,100755.45
2023-04-09T10:08:37.388Z,100754.45
2023-04-09T10:09:42.901Z,100750.81
2023-04-09T10:10:46.506Z,100746.30
2023-04-09T10:11:49.558Z,100753.39
2023-04-09T10:12:52.261Z,100747.92
2023-04-09T10:13:58.254Z,100745.05
2023-04-09T10:15:00.923Z,100743.13
2023-04-09T10:16:04.462Z,100751.17
2023-04-09T10:17:08.201Z,100748.59
2023-04-09T10:18:11.160Z,100746.20
2023-04-09T10:19:13.999Z,100747.39
2023-04-09T10:21:43.757Z,100737.20
2023-04-09T10:22:49.378Z,100742.63
2023-04-09T10:23:54.514Z,100739.17
2023-04-09T10:24:57.273Z,100736.59
2023-04-09T10:25:59.487Z,100745.73
2023-04-09T10:27:15.658Z,100737.88
2023-04-09T10:28:18.210Z,100745.35
2023-04-09T10:29:28.583Z,100736.77
2023-04-09T10:30:32.629Z,100735.91
2023-04-09T10:31:53.943Z,100736.55
2023-04-09T10:32:56.657Z,100731.08
2023-04-09T10:34:03.025Z,100723.12
2023-04-09T10:35:06.476Z,100719.69
2023-04-09T10:36:12.632Z,100733.09
2023-04-09T10:37:18.017Z,100729.36
2023-04-09T10:38:38.312Z,100730.98
2023-04-09T10:39:46.609Z,100724.47
2023-04-09T10:40:50.947Z,100725.00
2023-04-09T10:41:54.590Z,100719.23
2023-04-09T10:42:59.357Z,100719.80
2023-04-09T10:44:06.487Z,100718.52
2023-04-09T10:45:11.320Z,100717.55
2023-04-09T10:46:28.737Z,100718.22
2023-04-09T10:47:33.151Z,100721.66
2023-04-09T10:48:35.447Z,100716.30
2023-04-09T10:49:40.071Z,100718.22
2023-04-09T10:50:44.372Z,100721.00
2023-04-09T10:53:23.908Z,100711.35
2023-04-09T10:54:37.596Z,100719.94
2023-04-09T10:55:41.524Z,100717.91
2023-04-09T10:56:47.510Z,100715.86
2023-04-09T10:57:50.677Z,100705.81
2023-04-09T10:58:53.743Z,100700.34
2023-04-09T10:59:57.260Z,100709.27
2023-04-09T11:01:01.134Z,100703.03
2023-04-09T11:02:07.479Z,100702.83
2023-04-09T11:03:22.266Z,100699.19
2023-04-09T11:05:46.198Z,100704.36
2023-04-09T11:06:48.972Z,100699.30
2023-04-09T11:08:08.958Z,100701.78
2023-04-09T11:09:11.351Z,100703.30
2023-04-09T11:10:13.769Z,100694.25
2023-04-09T11:11:16.564Z,100696.62
2023-04-09T11:12:18.883Z,100696.52
2023-04-09T11:13:21.113Z,100700.06
2023-04-09T11:14:24.355Z,100692.02
2023-04-09T11:15:26.599Z,100688.27
2023-04-09T11:16:30.721Z,100688.91
2023-04-09T11:17:35.800Z,100692.33
2023-04-09T11:18:38.879Z,100690.39
2023-04-09T11:19:41.252Z,100691.05
2023-04-09T11:20:44.040Z,100689.98
2023-04-09T11:21:47.670Z,100684.50
2023-04-09T11:22:52.748Z,100687.19
2023-04-09T11:23:55.637Z,100692.35
2023-04-09T11:24:57.636Z,100684.16
2023-04-09T11:25:59.970Z,100687.39
2023-04-09T11:27:03.308Z,100684.39
2023-04-09T11:28:06.665Z,100681.59
2023-04-09T11:29:09.381Z,100685.03
2023-04-09T11:30:12.652Z,100683.07
2023-04-09T11:31:14.887Z,100682.86
2023-04-09T11:32:17.264Z,100679.31
2023-04-09T11:33:20.500Z,100676.41
2023-04-09T11:34:26.691Z,100680.06
2023-04-09T11:35:28.905Z,100675.45
2023-04-09T11:36:34.753Z,100673.72
2023-04-09T11:37:37.592Z,100670.18
2023-04-09T11:38:40.085Z,100678.34
2023-04-09T11:39:47.141Z,100665.88
2023-04-09T11:40:49.928Z,100674.15
2023-04-09T11:41:52.405Z,100675.78
2023-04-09T11:42:56.278Z,100670.72
2023-04-09T11:43:58.615Z,100666.45
2023-04-09T11:45:02.307Z,100671.07
2023-04-09T11:46:06.213Z,100666.66
2023-04-09T11:47:09.836Z,100660.22
2023-04-09T11:48:12.762Z,100661.80
2023-04-09T11:49:15.842Z,100658.16
2023-04-09T11:50:19.994Z,100657.94
2023-04-09T11:51:22.692Z,100657.73
2023-04-09T11:52:25.400Z,100646.02
2023-04-09T11:53:30.877Z,100668.27
2023-04-09T11:54:34.423Z,100655.69
2023-04-09T11:55:36.797Z,100651.08
2023-04-09T11:56:39.201Z,100657.30
2023-04-09T11:57:46.264Z,100646.31
2023-04-09T11:58:49.077Z,100638.15
2023-04-09T11:59:51.988Z,100642.66
2023-04-09T12:01:01.128Z,100647.28
2023-04-09T12:02:06.151Z,100648.39
2023-04-09T12:03:09.948Z,100649.56
2023-04-09T12:05:30.644Z,100641.41
2023-04-09T12:06:35.438Z,100648.83
2023-04-09T12:07:38.658Z,100644.31
2023-04-09T12:08:42.506Z,100651.52
2023-04-09T12:09:48.472Z,100645.18
2023-04-09T12:10:53.097Z,100646.90
2023-04-09T12:11:55.227Z,100644.21
2023-04-09T12:13:06.261Z,100641.73
2023-04-09T12:14:14.261Z,100644.63
2023-04-09T12:15:24.472Z,100649.25
2023-04-09T12:16:29.176Z,100636.92
2023-04-09T12:17:31.674Z,100643.98
2023-04-09T12:18:36.695Z,100647.67
2023-04-09T12:19:39.126Z,100648.49
2023-04-09T12:20:43.794Z,100634.00
2023-04-09T12:21:51.318Z,100649.04
2023-04-09T12:22:53.792Z,100644.42
2023-04-09T12:23:56.538Z,100634.54
2023-04-09T12:24:58.672Z,100640.77
2023-04-09T12:26:01.067Z,100641.63
2023-04-09T12:27:03.387Z,100641.63
2023-04-09T12:28:07.219Z,100630.89
2023-04-09T12:29:10.016Z,100630.89
2023-04-09T12:30:12.841Z,100635.40
2023-04-09T12:31:15.220Z,100632.81
2023-04-09T12:32:17.523Z,100633.68
2023-04-09T12:33:20.977Z,100635.51
2023-04-09T12:34:23.722Z,100637.44
2023-04-09T12:35:26.039Z,100626.80
2023-04-09T12:36:28.942Z,100636.78
2023-04-09T12:37:31.904Z,100631.55
2023-04-09T12:38:34.317Z,100639.72
2023-04-09T12:39:37.091Z,100631.77
2023-04-09T12:40:39.414Z,100629.19
2023-04-09T12:41:41.673Z,100632.84
2023-04-09T12:42:44.867Z,100634.77
2023-04-09T12:43:47.701Z,100627.67
2023-04-09T12:44:50.077Z,100629.60
2023-04-09T12:45:52.959Z,100627.88
2023-04-09T12:46:55.498Z,100633.25
2023-04-09T12:47:59.669Z,100624.44
2023-04-09T12:49:01.911Z,100625.30
2023-04-09T12:50:05.677Z,100626.16
2023-04-09T12:51:08.137Z,100623.61